Vallonia, Indiana
Current Conditions -  °F | °C
As of 2:53 PM on Friday 28 Nov 2014 (Local Time) from KBMG Reporting Station
Clear Clear  
Wind Chill: 27°   Ceiling: Unl
Heat Index: 36°   Visibility: 10mi
Dew Point: 23°   Wind: 15mph
Humidity: 59%   Direction: 170°S
Pressure: 30.15"   Gusts: 22mph
Location:  38.85°N, 86.1°W
Report Text: KBMG 281953Z 17013G19KT 10SM CLR 02/M05 A3015 RMK AO2 SLP218 T00221050
Loading
Personal Weather Stations






























Interactive Weather Map New forecast layout! Learn more

10-Day Weather Forecast

Advertisements
Track Severe Weather on mobile